Terminal Aerodrome Forecast
Issued by NWS Charleston, SC

Home | Current Version | Previous Version | Text Only | Print | Product List | Glossary On
Versions: 1 2 3 4 5 6 7 8 9 10 11 12 13 14 15 16 17 18 19 20 21
353
FTUS42 KCHS 260536
TAFSAV
TAF
KSAV 260536Z 2606/2706 16003KT P6SM SCT015
     FM261500 18008KT P6SM VCSH SCT025 BKN040
     FM261900 16012G17KT P6SM SCT040 BKN250
     FM270000 15005KT P6SM SCT020=

USA.gov is the U.S. government's official web portal to all federal, state and local government web resources and services.